sensor_id;sensor_type;location;lat;lon;timestamp;P1;durP1;ratioP1;P2;durP2;ratioP2
48911;SDS011;34722;52.108;5.044;2022-10-31T00:01:19;26.35;;;14.23;;
48911;SDS011;34722;52.108;5.044;2022-10-31T00:03:48;27.17;;;15.32;;
48911;SDS011;34722;52.108;5.044;2022-10-31T00:06:15;25.65;;;14.40;;
48911;SDS011;34722;52.108;5.044;2022-10-31T00:08:47;26.33;;;15.27;;
48911;SDS011;34722;52.108;5.044;2022-10-31T00:11:21;28.38;;;15.38;;
48911;SDS011;34722;52.108;5.044;2022-10-31T00:13:47;32.63;;;15.18;;
48911;SDS011;34722;52.108;5.044;2022-10-31T00:16:23;26.98;;;15.95;;
48911;SDS011;34722;52.108;5.044;2022-10-31T00:18:55;28.90;;;16.00;;
48911;SDS011;34722;52.108;5.044;2022-10-31T00:21:23;31.25;;;16.63;;
48911;SDS011;34722;52.108;5.044;2022-10-31T00:23:49;22.50;;;14.98;;
48911;SDS011;34722;52.108;5.044;2022-10-31T00:26:16;32.95;;;17.60;;
48911;SDS011;34722;52.108;5.044;2022-10-31T00:28:42;29.92;;;17.00;;
48911;SDS011;34722;52.108;5.044;2022-10-31T00:31:08;35.25;;;16.95;;
48911;SDS011;34722;52.108;5.044;2022-10-31T00:33:36;29.73;;;17.15;;
48911;SDS011;34722;52.108;5.044;2022-10-31T00:36:03;42.80;;;17.35;;
48911;SDS011;34722;52.108;5.044;2022-10-31T00:38:30;37.63;;;18.20;;
48911;SDS011;34722;52.108;5.044;2022-10-31T00:40:56;39.83;;;17.77;;
48911;SDS011;34722;52.108;5.044;2022-10-31T00:43:22;34.30;;;19.52;;
48911;SDS011;34722;52.108;5.044;2022-10-31T00:45:47;36.85;;;19.92;;
48911;SDS011;34722;52.108;5.044;2022-10-31T00:48:13;36.75;;;18.65;;
48911;SDS011;34722;52.108;5.044;2022-10-31T00:50:39;33.92;;;19.85;;
48911;SDS011;34722;52.108;5.044;2022-10-31T00:53:06;35.83;;;18.20;;
48911;SDS011;34722;52.108;5.044;2022-10-31T00:55:33;35.53;;;19.45;;
48911;SDS011;34722;52.108;5.044;2022-10-31T00:57:59;38.80;;;20.85;;
48911;SDS011;34722;52.108;5.044;2022-10-31T01:00:25;31.52;;;19.00;;
48911;SDS011;34722;52.108;5.044;2022-10-31T01:02:56;34.67;;;18.73;;
48911;SDS011;34722;52.108;5.044;2022-10-31T01:05:22;32.88;;;18.67;;
48911;SDS011;34722;52.108;5.044;2022-10-31T01:07:48;32.10;;;19.13;;
48911;SDS011;34722;52.108;5.044;2022-10-31T01:10:14;34.67;;;19.65;;
48911;SDS011;34722;52.108;5.044;2022-10-31T01:12:42;37.80;;;20.95;;
48911;SDS011;34722;52.108;5.044;2022-10-31T01:15:10;34.20;;;19.23;;
48911;SDS011;34722;52.108;5.044;2022-10-31T01:17:37;32.22;;;19.10;;
48911;SDS011;34722;52.108;5.044;2022-10-31T01:20:04;29.73;;;18.90;;
48911;SDS011;34722;52.108;5.044;2022-10-31T01:22:30;38.92;;;19.60;;
48911;SDS011;34722;52.108;5.044;2022-10-31T01:24:56;31.05;;;18.27;;
48911;SDS011;34722;52.108;5.044;2022-10-31T01:27:24;29.60;;;18.45;;
48911;SDS011;34722;52.108;5.044;2022-10-31T01:29:50;35.47;;;17.83;;
48911;SDS011;34722;52.108;5.044;2022-10-31T01:32:16;26.30;;;16.90;;
48911;SDS011;34722;52.108;5.044;2022-10-31T01:34:42;40.70;;;18.55;;
48911;SDS011;34722;52.108;5.044;2022-10-31T01:37:07;29.58;;;17.85;;
48911;SDS011;34722;52.108;5.044;2022-10-31T01:39:33;36.58;;;17.83;;
48911;SDS011;34722;52.108;5.044;2022-10-31T01:41:59;34.28;;;18.67;;
48911;SDS011;34722;52.108;5.044;2022-10-31T01:47:05;29.05;;;17.85;;
48911;SDS011;34722;52.108;5.044;2022-10-31T01:49:44;35.30;;;19.65;;
48911;SDS011;34722;52.108;5.044;2022-10-31T01:52:16;39.90;;;20.65;;
48911;SDS011;34722;52.108;5.044;2022-10-31T01:54:49;38.42;;;19.02;;
48911;SDS011;34722;52.108;5.044;2022-10-31T01:57:37;38.00;;;21.05;;
48911;SDS011;34722;52.108;5.044;2022-10-31T02:00:07;45.42;;;21.98;;
48911;SDS011;34722;52.108;5.044;2022-10-31T02:02:34;43.85;;;22.55;;
48911;SDS011;34722;52.108;5.044;2022-10-31T02:05:02;39.05;;;23.08;;
48911;SDS011;34722;52.108;5.044;2022-10-31T02:10:27;35.80;;;22.35;;
48911;SDS011;34722;52.108;5.044;2022-10-31T02:12:54;47.78;;;24.50;;
48911;SDS011;34722;52.108;5.044;2022-10-31T02:15:22;49.90;;;25.17;;
48911;SDS011;34722;52.108;5.044;2022-10-31T02:17:48;39.63;;;22.38;;
48911;SDS011;34722;52.108;5.044;2022-10-31T02:20:21;47.22;;;24.95;;
48911;SDS011;34722;52.108;5.044;2022-10-31T02:34:52;38.75;;;23.38;;
48911;SDS011;34722;52.108;5.044;2022-10-31T02:45:26;40.58;;;22.98;;
48911;SDS011;34722;52.108;5.044;2022-10-31T02:47:58;42.38;;;22.88;;
48911;SDS011;34722;52.108;5.044;2022-10-31T02:50:29;49.40;;;27.30;;
48911;SDS011;34722;52.108;5.044;2022-10-31T02:52:57;54.17;;;28.23;;
48911;SDS011;34722;52.108;5.044;2022-10-31T02:57:53;50.28;;;29.02;;
48911;SDS011;34722;52.108;5.044;2022-10-31T03:00:26;51.08;;;27.67;;
48911;SDS011;34722;52.108;5.044;2022-10-31T03:10:59;68.28;;;31.27;;
48911;SDS011;34722;52.108;5.044;2022-10-31T03:16:07;66.65;;;34.13;;
48911;SDS011;34722;52.108;5.044;2022-10-31T03:18:48;62.70;;;34.38;;
48911;SDS011;34722;52.108;5.044;2022-10-31T03:23:52;63.65;;;32.25;;
48911;SDS011;34722;52.108;5.044;2022-10-31T03:26:21;77.47;;;35.22;;
48911;SDS011;34722;52.108;5.044;2022-10-31T03:28:52;73.85;;;35.83;;
48911;SDS011;34722;52.108;5.044;2022-10-31T03:31:32;79.90;;;38.17;;
48911;SDS011;34722;52.108;5.044;2022-10-31T03:34:02;76.15;;;37.75;;
48911;SDS011;34722;52.108;5.044;2022-10-31T03:36:30;80.70;;;39.30;;
48911;SDS011;34722;52.108;5.044;2022-10-31T03:38:59;78.80;;;39.10;;
48911;SDS011;34722;52.108;5.044;2022-10-31T03:41:30;80.32;;;39.05;;
48911;SDS011;34722;52.108;5.044;2022-10-31T03:46:31;81.53;;;39.97;;
48911;SDS011;34722;52.108;5.044;2022-10-31T03:48:57;87.70;;;39.65;;
48911;SDS011;34722;52.108;5.044;2022-10-31T03:51:32;80.20;;;39.92;;
48911;SDS011;34722;52.108;5.044;2022-10-31T03:54:08;92.22;;;41.90;;
48911;SDS011;34722;52.108;5.044;2022-10-31T03:56:45;95.38;;;45.20;;
48911;SDS011;34722;52.108;5.044;2022-10-31T03:59:23;85.47;;;41.72;;
48911;SDS011;34722;52.108;5.044;2022-10-31T04:02:22;90.75;;;40.13;;
48911;SDS011;34722;52.108;5.044;2022-10-31T04:08:09;95.07;;;40.78;;
48911;SDS011;34722;52.108;5.044;2022-10-31T04:10:39;88.82;;;42.55;;
48911;SDS011;34722;52.108;5.044;2022-10-31T04:13:09;91.25;;;44.03;;
48911;SDS011;34722;52.108;5.044;2022-10-31T04:15:38;89.47;;;44.70;;
48911;SDS011;34722;52.108;5.044;2022-10-31T04:18:06;99.95;;;43.25;;
48911;SDS011;34722;52.108;5.044;2022-10-31T04:20:33;105.20;;;46.40;;
48911;SDS011;34722;52.108;5.044;2022-10-31T04:23:01;104.80;;;44.97;;
48911;SDS011;34722;52.108;5.044;2022-10-31T04:25:28;98.80;;;47.40;;
48911;SDS011;34722;52.108;5.044;2022-10-31T04:27:54;100.15;;;46.22;;
48911;SDS011;34722;52.108;5.044;2022-10-31T04:30:20;108.13;;;47.08;;
48911;SDS011;34722;52.108;5.044;2022-10-31T04:38:22;115.32;;;49.75;;
48911;SDS011;34722;52.108;5.044;2022-10-31T04:40:51;106.55;;;49.20;;
48911;SDS011;34722;52.108;5.044;2022-10-31T04:43:19;108.65;;;46.40;;
48911;SDS011;34722;52.108;5.044;2022-10-31T04:45:47;99.10;;;46.30;;
48911;SDS011;34722;52.108;5.044;2022-10-31T04:48:16;111.05;;;47.60;;
48911;SDS011;34722;52.108;5.044;2022-10-31T04:50:42;109.72;;;49.05;;
48911;SDS011;34722;52.108;5.044;2022-10-31T04:53:09;99.43;;;47.25;;
48911;SDS011;34722;52.108;5.044;2022-10-31T04:55:36;101.18;;;46.30;;
48911;SDS011;34722;52.108;5.044;2022-10-31T04:58:03;104.47;;;44.75;;
48911;SDS011;34722;52.108;5.044;2022-10-31T05:00:29;101.35;;;45.35;;
48911;SDS011;34722;52.108;5.044;2022-10-31T05:02:56;106.60;;;44.70;;
48911;SDS011;34722;52.108;5.044;2022-10-31T05:05:27;99.55;;;48.03;;
48911;SDS011;34722;52.108;5.044;2022-10-31T05:07:55;99.40;;;46.10;;
48911;SDS011;34722;52.108;5.044;2022-10-31T05:10:28;102.25;;;46.97;;
48911;SDS011;34722;52.108;5.044;2022-10-31T05:12:57;100.78;;;44.95;;
48911;SDS011;34722;52.108;5.044;2022-10-31T05:15:24;98.30;;;45.08;;
48911;SDS011;34722;52.108;5.044;2022-10-31T05:17:52;95.03;;;43.35;;
48911;SDS011;34722;52.108;5.044;2022-10-31T05:20:19;94.03;;;43.38;;
48911;SDS011;34722;52.108;5.044;2022-10-31T05:22:47;92.70;;;42.60;;
48911;SDS011;34722;52.108;5.044;2022-10-31T05:25:15;103.78;;;43.60;;
48911;SDS011;34722;52.108;5.044;2022-10-31T05:27:42;94.03;;;41.15;;
48911;SDS011;34722;52.108;5.044;2022-10-31T05:30:10;108.30;;;43.75;;
48911;SDS011;34722;52.108;5.044;2022-10-31T05:32:45;93.63;;;40.15;;
48911;SDS011;34722;52.108;5.044;2022-10-31T05:35:16;94.28;;;40.05;;
48911;SDS011;34722;52.108;5.044;2022-10-31T05:37:49;102.07;;;43.75;;
48911;SDS011;34722;52.108;5.044;2022-10-31T05:40:19;91.78;;;39.05;;
48911;SDS011;34722;52.108;5.044;2022-10-31T05:42:51;113.78;;;42.17;;
48911;SDS011;34722;52.108;5.044;2022-10-31T05:45:21;108.55;;;41.83;;
48911;SDS011;34722;52.108;5.044;2022-10-31T05:47:51;98.38;;;43.00;;
48911;SDS011;34722;52.108;5.044;2022-10-31T05:53:04;99.43;;;42.15;;
48911;SDS011;34722;52.108;5.044;2022-10-31T05:56:18;100.05;;;44.80;;
48911;SDS011;34722;52.108;5.044;2022-10-31T05:58:47;91.93;;;42.13;;
48911;SDS011;34722;52.108;5.044;2022-10-31T06:01:17;109.10;;;47.22;;
48911;SDS011;34722;52.108;5.044;2022-10-31T06:03:43;111.22;;;50.33;;
48911;SDS011;34722;52.108;5.044;2022-10-31T06:06:18;111.35;;;46.67;;
48911;SDS011;34722;52.108;5.044;2022-10-31T06:09:06;101.50;;;50.03;;
48911;SDS011;34722;52.108;5.044;2022-10-31T06:11:35;112.90;;;47.95;;
48911;SDS011;34722;52.108;5.044;2022-10-31T06:14:07;98.72;;;43.53;;
48911;SDS011;34722;52.108;5.044;2022-10-31T06:16:33;92.70;;;42.07;;
48911;SDS011;34722;52.108;5.044;2022-10-31T06:19:02;103.10;;;46.10;;
48911;SDS011;34722;52.108;5.044;2022-10-31T06:21:28;106.55;;;47.03;;
48911;SDS011;34722;52.108;5.044;2022-10-31T06:23:54;115.43;;;47.80;;
48911;SDS011;34722;52.108;5.044;2022-10-31T06:26:20;116.82;;;45.80;;
48911;SDS011;34722;52.108;5.044;2022-10-31T06:28:47;97.95;;;44.80;;
48911;SDS011;34722;52.108;5.044;2022-10-31T07:05:02;126.20;;;52.70;;
48911;SDS011;34722;52.108;5.044;2022-10-31T07:07:40;125.82;;;51.17;;
48911;SDS011;34722;52.108;5.044;2022-10-31T07:10:06;139.13;;;53.78;;
48911;SDS011;34722;52.108;5.044;2022-10-31T07:12:36;121.20;;;53.75;;
48911;SDS011;34722;52.108;5.044;2022-10-31T07:15:05;128.20;;;55.25;;
48911;SDS011;34722;52.108;5.044;2022-10-31T07:17:34;129.07;;;54.17;;
48911;SDS011;34722;52.108;5.044;2022-10-31T07:20:00;129.55;;;54.42;;
48911;SDS011;34722;52.108;5.044;2022-10-31T07:22:35;142.95;;;58.28;;
48911;SDS011;34722;52.108;5.044;2022-10-31T07:25:02;151.05;;;58.67;;
48911;SDS011;34722;52.108;5.044;2022-10-31T07:27:34;135.85;;;57.80;;
48911;SDS011;34722;52.108;5.044;2022-10-31T07:30:07;127.43;;;55.65;;
48911;SDS011;34722;52.108;5.044;2022-10-31T07:32:44;125.43;;;54.08;;
48911;SDS011;34722;52.108;5.044;2022-10-31T07:35:13;124.28;;;53.42;;
48911;SDS011;34722;52.108;5.044;2022-10-31T07:37:43;118.90;;;52.78;;
48911;SDS011;34722;52.108;5.044;2022-10-31T07:40:19;114.82;;;50.63;;
48911;SDS011;34722;52.108;5.044;2022-10-31T07:42:47;104.60;;;48.30;;
48911;SDS011;34722;52.108;5.044;2022-10-31T07:45:22;85.72;;;45.47;;
48911;SDS011;34722;52.108;5.044;2022-10-31T07:47:52;77.97;;;41.65;;
48911;SDS011;34722;52.108;5.044;2022-10-31T07:50:28;52.72;;;31.52;;
48911;SDS011;34722;52.108;5.044;2022-10-31T07:53:15;53.35;;;29.48;;
48911;SDS011;34722;52.108;5.044;2022-10-31T07:55:44;34.63;;;22.40;;
48911;SDS011;34722;52.108;5.044;2022-10-31T07:58:15;33.13;;;21.33;;
48911;SDS011;34722;52.108;5.044;2022-10-31T08:00:49;33.70;;;20.08;;
48911;SDS011;34722;52.108;5.044;2022-10-31T08:03:16;28.92;;;19.00;;
48911;SDS011;34722;52.108;5.044;2022-10-31T08:05:48;27.08;;;17.75;;
48911;SDS011;34722;52.108;5.044;2022-10-31T08:08:19;30.38;;;18.20;;
48911;SDS011;34722;52.108;5.044;2022-10-31T08:10:54;22.73;;;15.68;;
48911;SDS011;34722;52.108;5.044;2022-10-31T08:13:26;18.83;;;14.82;;
48911;SDS011;34722;52.108;5.044;2022-10-31T08:16:01;20.55;;;15.85;;
48911;SDS011;34722;52.108;5.044;2022-10-31T08:18:47;25.10;;;15.70;;
48911;SDS011;34722;52.108;5.044;2022-10-31T08:21:16;26.02;;;17.23;;
48911;SDS011;34722;52.108;5.044;2022-10-31T08:23:42;25.00;;;17.05;;
48911;SDS011;34722;52.108;5.044;2022-10-31T08:26:08;24.70;;;16.67;;
48911;SDS011;34722;52.108;5.044;2022-10-31T08:28:43;21.85;;;16.17;;
48911;SDS011;34722;52.108;5.044;2022-10-31T08:31:12;22.40;;;16.15;;
48911;SDS011;34722;52.108;5.044;2022-10-31T08:33:41;25.67;;;16.75;;
48911;SDS011;34722;52.108;5.044;2022-10-31T08:36:10;23.58;;;15.60;;
48911;SDS011;34722;52.108;5.044;2022-10-31T08:38:36;24.95;;;16.83;;
48911;SDS011;34722;52.108;5.044;2022-10-31T08:41:04;26.27;;;16.27;;
48911;SDS011;34722;52.108;5.044;2022-10-31T08:43:30;25.10;;;17.98;;
48911;SDS011;34722;52.108;5.044;2022-10-31T08:45:56;24.25;;;16.20;;
48911;SDS011;34722;52.108;5.044;2022-10-31T08:48:25;25.45;;;18.20;;
48911;SDS011;34722;52.108;5.044;2022-10-31T08:50:51;25.77;;;18.08;;
48911;SDS011;34722;52.108;5.044;2022-10-31T08:53:23;29.52;;;18.98;;
48911;SDS011;34722;52.108;5.044;2022-10-31T08:55:51;32.13;;;18.42;;
48911;SDS011;34722;52.108;5.044;2022-10-31T08:58:22;27.20;;;17.80;;
48911;SDS011;34722;52.108;5.044;2022-10-31T09:00:52;28.45;;;17.88;;
48911;SDS011;34722;52.108;5.044;2022-10-31T09:03:27;36.13;;;21.30;;
48911;SDS011;34722;52.108;5.044;2022-10-31T09:05:55;31.65;;;20.15;;
48911;SDS011;34722;52.108;5.044;2022-10-31T09:08:26;28.42;;;19.08;;
48911;SDS011;34722;52.108;5.044;2022-10-31T09:11:01;30.92;;;19.15;;
48911;SDS011;34722;52.108;5.044;2022-10-31T09:13:31;32.17;;;21.00;;
48911;SDS011;34722;52.108;5.044;2022-10-31T09:16:07;35.22;;;19.92;;
48911;SDS011;34722;52.108;5.044;2022-10-31T09:18:35;34.95;;;20.35;;
48911;SDS011;34722;52.108;5.044;2022-10-31T09:21:12;32.35;;;19.80;;
48911;SDS011;34722;52.108;5.044;2022-10-31T09:23:47;36.75;;;19.67;;
48911;SDS011;34722;52.108;5.044;2022-10-31T09:26:22;35.88;;;22.40;;
48911;SDS011;34722;52.108;5.044;2022-10-31T09:28:51;35.45;;;22.05;;
48911;SDS011;34722;52.108;5.044;2022-10-31T09:31:20;35.33;;;21.02;;
48911;SDS011;34722;52.108;5.044;2022-10-31T09:33:55;41.88;;;23.20;;
48911;SDS011;34722;52.108;5.044;2022-10-31T09:36:24;35.15;;;21.83;;
48911;SDS011;34722;52.108;5.044;2022-10-31T09:38:55;40.05;;;23.05;;
48911;SDS011;34722;52.108;5.044;2022-10-31T09:52:51;41.03;;;24.40;;
48911;SDS011;34722;52.108;5.044;2022-10-31T09:55:36;42.30;;;25.15;;
48911;SDS011;34722;52.108;5.044;2022-10-31T09:58:05;40.40;;;24.38;;
48911;SDS011;34722;52.108;5.044;2022-10-31T10:00:34;41.28;;;23.45;;
48911;SDS011;34722;52.108;5.044;2022-10-31T10:05:37;41.42;;;22.20;;
48911;SDS011;34722;52.108;5.044;2022-10-31T10:08:15;39.05;;;20.48;;
48911;SDS011;34722;52.108;5.044;2022-10-31T10:10:54;38.03;;;22.23;;
48911;SDS011;34722;52.108;5.044;2022-10-31T10:19:16;48.95;;;25.77;;
48911;SDS011;34722;52.108;5.044;2022-10-31T10:30:28;29.52;;;18.73;;
48911;SDS011;34722;52.108;5.044;2022-10-31T10:36:27;30.23;;;20.20;;
48911;SDS011;34722;52.108;5.044;2022-10-31T10:38:54;28.55;;;19.88;;
48911;SDS011;34722;52.108;5.044;2022-10-31T10:41:28;32.15;;;20.73;;
48911;SDS011;34722;52.108;5.044;2022-10-31T10:43:57;36.17;;;20.05;;
48911;SDS011;34722;52.108;5.044;2022-10-31T10:46:30;30.73;;;20.25;;
48911;SDS011;34722;52.108;5.044;2022-10-31T10:49:18;28.73;;;19.63;;
48911;SDS011;34722;52.108;5.044;2022-10-31T10:52:00;31.17;;;20.13;;
48911;SDS011;34722;52.108;5.044;2022-10-31T10:59:47;32.47;;;20.35;;
48911;SDS011;34722;52.108;5.044;2022-10-31T11:02:23;28.42;;;20.23;;
48911;SDS011;34722;52.108;5.044;2022-10-31T11:04:52;31.42;;;20.00;;
48911;SDS011;34722;52.108;5.044;2022-10-31T11:07:19;33.65;;;20.92;;
48911;SDS011;34722;52.108;5.044;2022-10-31T11:09:46;34.83;;;20.13;;
48911;SDS011;34722;52.108;5.044;2022-10-31T11:12:26;29.80;;;19.92;;
48911;SDS011;34722;52.108;5.044;2022-10-31T11:14:56;32.97;;;19.83;;
48911;SDS011;34722;52.108;5.044;2022-10-31T11:17:29;27.95;;;19.90;;
48911;SDS011;34722;52.108;5.044;2022-10-31T11:20:39;37.08;;;20.27;;
48911;SDS011;34722;52.108;5.044;2022-10-31T11:22:47;35.50;;;21.30;;
48911;SDS011;34722;52.108;5.044;2022-10-31T11:28:09;31.48;;;21.90;;
48911;SDS011;34722;52.108;5.044;2022-10-31T11:30:47;40.25;;;22.23;;
48911;SDS011;34722;52.108;5.044;2022-10-31T11:33:21;35.97;;;21.40;;
48911;SDS011;34722;52.108;5.044;2022-10-31T11:35:53;33.65;;;23.35;;
48911;SDS011;34722;52.108;5.044;2022-10-31T11:38:21;36.58;;;24.38;;
48911;SDS011;34722;52.108;5.044;2022-10-31T11:41:31;36.17;;;25.63;;
48911;SDS011;34722;52.108;5.044;2022-10-31T11:43:59;37.50;;;25.38;;
48911;SDS011;34722;52.108;5.044;2022-10-31T11:46:54;42.10;;;26.80;;
48911;SDS011;34722;52.108;5.044;2022-10-31T11:49:31;42.83;;;26.85;;
48911;SDS011;34722;52.108;5.044;2022-10-31T11:52:03;42.38;;;25.98;;
48911;SDS011;34722;52.108;5.044;2022-10-31T11:57:54;46.55;;;27.85;;
48911;SDS011;34722;52.108;5.044;2022-10-31T12:00:23;54.65;;;28.85;;
48911;SDS011;34722;52.108;5.044;2022-10-31T12:02:51;52.60;;;26.02;;
48911;SDS011;34722;52.108;5.044;2022-10-31T12:05:31;48.90;;;27.65;;
48911;SDS011;34722;52.108;5.044;2022-10-31T12:07:58;58.15;;;28.83;;
48911;SDS011;34722;52.108;5.044;2022-10-31T12:10:27;55.83;;;28.50;;
48911;SDS011;34722;52.108;5.044;2022-10-31T12:13:08;48.55;;;27.30;;
48911;SDS011;34722;52.108;5.044;2022-10-31T12:19:04;54.88;;;29.17;;
48911;SDS011;34722;52.108;5.044;2022-10-31T12:21:44;50.15;;;28.27;;
48911;SDS011;34722;52.108;5.044;2022-10-31T12:27:30;62.97;;;31.75;;
48911;SDS011;34722;52.108;5.044;2022-10-31T12:30:19;59.33;;;31.02;;
48911;SDS011;34722;52.108;5.044;2022-10-31T12:35:21;53.83;;;29.90;;
48911;SDS011;34722;52.108;5.044;2022-10-31T12:45:33;59.75;;;30.10;;
48911;SDS011;34722;52.108;5.044;2022-10-31T12:48:24;60.55;;;30.10;;
48911;SDS011;34722;52.108;5.044;2022-10-31T12:54:42;51.53;;;29.23;;
48911;SDS011;34722;52.108;5.044;2022-10-31T12:57:23;62.78;;;29.73;;
48911;SDS011;34722;52.108;5.044;2022-10-31T13:00:02;60.33;;;29.85;;
48911;SDS011;34722;52.108;5.044;2022-10-31T13:05:27;53.72;;;30.92;;
48911;SDS011;34722;52.108;5.044;2022-10-31T13:08:11;60.78;;;31.45;;
48911;SDS011;34722;52.108;5.044;2022-10-31T13:13:13;56.38;;;31.00;;
48911;SDS011;34722;52.108;5.044;2022-10-31T13:15:45;57.78;;;30.27;;
48911;SDS011;34722;52.108;5.044;2022-10-31T13:18:27;57.92;;;30.42;;
48911;SDS011;34722;52.108;5.044;2022-10-31T13:20:58;59.78;;;30.70;;
48911;SDS011;34722;52.108;5.044;2022-10-31T13:23:34;59.47;;;31.95;;
48911;SDS011;34722;52.108;5.044;2022-10-31T13:26:23;50.85;;;29.90;;
48911;SDS011;34722;52.108;5.044;2022-10-31T13:31:48;58.78;;;30.98;;
48911;SDS011;34722;52.108;5.044;2022-10-31T13:40:09;57.13;;;31.55;;
48911;SDS011;34722;52.108;5.044;2022-10-31T13:45:46;63.13;;;32.17;;
48911;SDS011;34722;52.108;5.044;2022-10-31T13:50:55;59.03;;;32.25;;
48911;SDS011;34722;52.108;5.044;2022-10-31T13:53:43;57.88;;;30.10;;
48911;SDS011;34722;52.108;5.044;2022-10-31T13:56:22;59.38;;;29.98;;
48911;SDS011;34722;52.108;5.044;2022-10-31T14:01:49;65.00;;;30.58;;
48911;SDS011;34722;52.108;5.044;2022-10-31T14:04:37;63.55;;;33.55;;
48911;SDS011;34722;52.108;5.044;2022-10-31T14:07:20;60.60;;;31.75;;
48911;SDS011;34722;52.108;5.044;2022-10-31T14:17:39;58.63;;;30.45;;
48911;SDS011;34722;52.108;5.044;2022-10-31T14:22:41;59.25;;;30.77;;
48911;SDS011;34722;52.108;5.044;2022-10-31T14:27:52;61.65;;;32.53;;
48911;SDS011;34722;52.108;5.044;2022-10-31T14:30:22;72.68;;;34.97;;
48911;SDS011;34722;52.108;5.044;2022-10-31T14:32:50;62.00;;;31.85;;
48911;SDS011;34722;52.108;5.044;2022-10-31T14:35:19;69.05;;;32.13;;
48911;SDS011;34722;52.108;5.044;2022-10-31T14:46:32;69.72;;;31.25;;
48911;SDS011;34722;52.108;5.044;2022-10-31T14:49:15;67.30;;;32.15;;
48911;SDS011;34722;52.108;5.044;2022-10-31T14:51:53;67.03;;;33.45;;
48911;SDS011;34722;52.108;5.044;2022-10-31T14:57:00;67.00;;;31.05;;
48911;SDS011;34722;52.108;5.044;2022-10-31T14:59:31;62.67;;;32.80;;
48911;SDS011;34722;52.108;5.044;2022-10-31T15:02:12;68.05;;;33.90;;
48911;SDS011;34722;52.108;5.044;2022-10-31T15:04:42;61.67;;;31.77;;
48911;SDS011;34722;52.108;5.044;2022-10-31T15:07:12;66.18;;;33.10;;
48911;SDS011;34722;52.108;5.044;2022-10-31T15:09:42;73.82;;;36.78;;
48911;SDS011;34722;52.108;5.044;2022-10-31T15:12:26;72.50;;;34.28;;
48911;SDS011;34722;52.108;5.044;2022-10-31T15:15:10;65.97;;;34.47;;
48911;SDS011;34722;52.108;5.044;2022-10-31T15:17:41;65.32;;;34.08;;
48911;SDS011;34722;52.108;5.044;2022-10-31T15:20:18;68.30;;;33.70;;
48911;SDS011;34722;52.108;5.044;2022-10-31T15:22:46;70.10;;;33.03;;
48911;SDS011;34722;52.108;5.044;2022-10-31T15:25:16;61.65;;;30.85;;
48911;SDS011;34722;52.108;5.044;2022-10-31T15:27:47;67.20;;;32.97;;
48911;SDS011;34722;52.108;5.044;2022-10-31T15:32:50;72.68;;;34.33;;
48911;SDS011;34722;52.108;5.044;2022-10-31T15:35:19;66.85;;;32.55;;
48911;SDS011;34722;52.108;5.044;2022-10-31T15:37:56;68.00;;;32.22;;
48911;SDS011;34722;52.108;5.044;2022-10-31T15:40:23;78.05;;;36.78;;
48911;SDS011;34722;52.108;5.044;2022-10-31T15:42:55;69.10;;;35.50;;
48911;SDS011;34722;52.108;5.044;2022-10-31T15:47:55;63.53;;;34.30;;
48911;SDS011;34722;52.108;5.044;2022-10-31T15:53:01;71.03;;;32.65;;
48911;SDS011;34722;52.108;5.044;2022-10-31T15:55:28;54.13;;;28.95;;
48911;SDS011;34722;52.108;5.044;2022-10-31T15:57:58;59.42;;;31.02;;
48911;SDS011;34722;52.108;5.044;2022-10-31T16:05:36;67.88;;;32.35;;
48911;SDS011;34722;52.108;5.044;2022-10-31T16:10:58;59.22;;;31.23;;
48911;SDS011;34722;52.108;5.044;2022-10-31T16:13:31;64.75;;;30.33;;
48911;SDS011;34722;52.108;5.044;2022-10-31T16:16:00;64.45;;;29.73;;
48911;SDS011;34722;52.108;5.044;2022-10-31T16:18:27;61.05;;;29.33;;
48911;SDS011;34722;52.108;5.044;2022-10-31T16:21:04;63.30;;;29.42;;
48911;SDS011;34722;52.108;5.044;2022-10-31T16:26:49;63.70;;;29.15;;
48911;SDS011;34722;52.108;5.044;2022-10-31T16:29:25;68.32;;;31.73;;
48911;SDS011;34722;52.108;5.044;2022-10-31T20:05:06;31.63;;;16.95;;
48911;SDS011;34722;52.108;5.044;2022-10-31T20:07:42;31.48;;;16.67;;
48911;SDS011;34722;52.108;5.044;2022-10-31T20:10:11;43.00;;;17.98;;
48911;SDS011;34722;52.108;5.044;2022-10-31T20:12:52;32.15;;;16.73;;
48911;SDS011;34722;52.108;5.044;2022-10-31T20:15:21;28.17;;;16.88;;
48911;SDS011;34722;52.108;5.044;2022-10-31T20:17:47;30.35;;;16.75;;
48911;SDS011;34722;52.108;5.044;2022-10-31T20:20:13;35.00;;;17.17;;
48911;SDS011;34722;52.108;5.044;2022-10-31T20:22:39;35.45;;;16.63;;
48911;SDS011;34722;52.108;5.044;2022-10-31T20:25:05;26.35;;;14.57;;
48911;SDS011;34722;52.108;5.044;2022-10-31T20:27:31;31.00;;;15.93;;
48911;SDS011;34722;52.108;5.044;2022-10-31T20:29:57;33.72;;;15.80;;
48911;SDS011;34722;52.108;5.044;2022-10-31T20:32:23;27.02;;;14.73;;
48911;SDS011;34722;52.108;5.044;2022-10-31T20:34:49;29.30;;;13.68;;
48911;SDS011;34722;52.108;5.044;2022-10-31T20:37:15;25.48;;;14.20;;
48911;SDS011;34722;52.108;5.044;2022-10-31T20:39:52;26.20;;;13.50;;
48911;SDS011;34722;52.108;5.044;2022-10-31T20:42:18;34.05;;;14.65;;
48911;SDS011;34722;52.108;5.044;2022-10-31T20:44:45;25.10;;;13.48;;
48911;SDS011;34722;52.108;5.044;2022-10-31T20:47:11;32.78;;;12.88;;
48911;SDS011;34722;52.108;5.044;2022-10-31T20:49:40;29.55;;;14.38;;
48911;SDS011;34722;52.108;5.044;2022-10-31T20:52:06;23.40;;;12.52;;
48911;SDS011;34722;52.108;5.044;2022-10-31T20:54:31;25.63;;;13.13;;
48911;SDS011;34722;52.108;5.044;2022-10-31T20:57:00;22.45;;;12.38;;
48911;SDS011;34722;52.108;5.044;2022-10-31T20:59:26;23.20;;;11.43;;
48911;SDS011;34722;52.108;5.044;2022-10-31T21:01:52;28.35;;;15.63;;
48911;SDS011;34722;52.108;5.044;2022-10-31T21:04:18;23.52;;;12.13;;
48911;SDS011;34722;52.108;5.044;2022-10-31T21:06:43;24.77;;;11.68;;
48911;SDS011;34722;52.108;5.044;2022-10-31T21:09:09;23.90;;;10.73;;
48911;SDS011;34722;52.108;5.044;2022-10-31T21:11:35;23.65;;;10.90;;
48911;SDS011;34722;52.108;5.044;2022-10-31T21:14:00;21.60;;;10.88;;
48911;SDS011;34722;52.108;5.044;2022-10-31T21:16:27;24.95;;;11.05;;
48911;SDS011;34722;52.108;5.044;2022-10-31T21:21:26;18.58;;;10.90;;
48911;SDS011;34722;52.108;5.044;2022-10-31T21:24:03;19.58;;;11.52;;
48911;SDS011;34722;52.108;5.044;2022-10-31T21:26:33;20.65;;;11.95;;
48911;SDS011;34722;52.108;5.044;2022-10-31T21:29:02;24.50;;;12.57;;
48911;SDS011;34722;52.108;5.044;2022-10-31T21:31:29;22.00;;;11.27;;
48911;SDS011;34722;52.108;5.044;2022-10-31T21:33:56;25.65;;;11.65;;
48911;SDS011;34722;52.108;5.044;2022-10-31T21:36:22;22.98;;;11.48;;
48911;SDS011;34722;52.108;5.044;2022-10-31T21:38:52;22.48;;;11.35;;
48911;SDS011;34722;52.108;5.044;2022-10-31T21:41:19;23.48;;;11.75;;
48911;SDS011;34722;52.108;5.044;2022-10-31T21:43:46;20.88;;;10.35;;
48911;SDS011;34722;52.108;5.044;2022-10-31T21:46:14;30.10;;;11.60;;
48911;SDS011;34722;52.108;5.044;2022-10-31T21:48:42;23.20;;;11.20;;
48911;SDS011;34722;52.108;5.044;2022-10-31T21:51:09;24.45;;;11.57;;
48911;SDS011;34722;52.108;5.044;2022-10-31T21:53:46;19.60;;;10.68;;
48911;SDS011;34722;52.108;5.044;2022-10-31T21:56:30;28.65;;;12.15;;
48911;SDS011;34722;52.108;5.044;2022-10-31T21:58:56;24.88;;;11.60;;